sensor_id;sensor_type;location;lat;lon;timestamp;P1;durP1;ratioP1;P2;durP2;ratioP2
49314;SDS011;36672;50.710;12.498;2022-12-01T00:01:25;15.50;;;10.68;;
49314;SDS011;36672;50.710;12.498;2022-12-01T00:03:50;16.65;;;11.45;;
49314;SDS011;36672;50.710;12.498;2022-12-01T00:06:19;15.98;;;10.73;;
49314;SDS011;36672;50.710;12.498;2022-12-01T00:08:46;15.02;;;10.35;;
49314;SDS011;36672;50.710;12.498;2022-12-01T00:11:32;15.57;;;10.32;;
49314;SDS011;36672;50.710;12.498;2022-12-01T00:13:58;15.38;;;10.15;;
49314;SDS011;36672;50.710;12.498;2022-12-01T00:16:24;14.57;;;10.00;;
49314;SDS011;36672;50.710;12.498;2022-12-01T00:18:49;15.15;;;10.02;;
49314;SDS011;36672;50.710;12.498;2022-12-01T00:21:16;17.20;;;10.90;;
49314;SDS011;36672;50.710;12.498;2022-12-01T00:23:43;17.95;;;11.05;;
49314;SDS011;36672;50.710;12.498;2022-12-01T00:26:11;16.58;;;11.27;;
49314;SDS011;36672;50.710;12.498;2022-12-01T00:28:36;17.00;;;11.32;;
49314;SDS011;36672;50.710;12.498;2022-12-01T00:31:05;18.75;;;12.00;;
49314;SDS011;36672;50.710;12.498;2022-12-01T00:33:31;15.65;;;11.20;;
49314;SDS011;36672;50.710;12.498;2022-12-01T00:35:57;17.83;;;11.32;;
49314;SDS011;36672;50.710;12.498;2022-12-01T00:38:23;16.42;;;11.25;;
49314;SDS011;36672;50.710;12.498;2022-12-01T00:40:48;16.52;;;11.20;;
49314;SDS011;36672;50.710;12.498;2022-12-01T00:43:14;16.42;;;10.57;;
49314;SDS011;36672;50.710;12.498;2022-12-01T00:45:39;17.02;;;11.80;;
49314;SDS011;36672;50.710;12.498;2022-12-01T00:48:04;16.77;;;11.07;;
49314;SDS011;36672;50.710;12.498;2022-12-01T00:50:30;15.52;;;11.18;;
49314;SDS011;36672;50.710;12.498;2022-12-01T00:52:55;18.92;;;12.65;;
49314;SDS011;36672;50.710;12.498;2022-12-01T00:55:20;18.73;;;11.98;;
49314;SDS011;36672;50.710;12.498;2022-12-01T00:57:46;16.08;;;11.13;;
49314;SDS011;36672;50.710;12.498;2022-12-01T01:00:11;17.25;;;11.30;;
49314;SDS011;36672;50.710;12.498;2022-12-01T01:02:38;15.85;;;11.07;;
49314;SDS011;36672;50.710;12.498;2022-12-01T01:05:04;16.17;;;11.55;;
49314;SDS011;36672;50.710;12.498;2022-12-01T01:07:30;18.58;;;12.25;;
49314;SDS011;36672;50.710;12.498;2022-12-01T01:09:56;16.33;;;11.25;;
49314;SDS011;36672;50.710;12.498;2022-12-01T01:12:21;17.65;;;12.30;;
49314;SDS011;36672;50.710;12.498;2022-12-01T01:14:46;17.27;;;12.10;;
49314;SDS011;36672;50.710;12.498;2022-12-01T01:17:12;17.50;;;12.48;;
49314;SDS011;36672;50.710;12.498;2022-12-01T01:19:37;21.13;;;13.52;;
49314;SDS011;36672;50.710;12.498;2022-12-01T01:22:02;18.75;;;12.95;;
49314;SDS011;36672;50.710;12.498;2022-12-01T01:24:28;18.27;;;12.48;;
49314;SDS011;36672;50.710;12.498;2022-12-01T01:26:53;18.15;;;12.23;;
49314;SDS011;36672;50.710;12.498;2022-12-01T01:29:19;18.23;;;13.02;;
49314;SDS011;36672;50.710;12.498;2022-12-01T01:31:44;19.38;;;13.20;;
49314;SDS011;36672;50.710;12.498;2022-12-01T01:34:10;21.10;;;13.23;;
49314;SDS011;36672;50.710;12.498;2022-12-01T01:36:35;20.23;;;12.95;;
49314;SDS011;36672;50.710;12.498;2022-12-01T01:39:02;20.48;;;13.32;;
49314;SDS011;36672;50.710;12.498;2022-12-01T01:41:27;23.73;;;14.10;;
49314;SDS011;36672;50.710;12.498;2022-12-01T01:43:56;23.90;;;13.57;;
49314;SDS011;36672;50.710;12.498;2022-12-01T01:46:25;20.00;;;13.20;;
49314;SDS011;36672;50.710;12.498;2022-12-01T01:51:25;20.23;;;13.50;;
49314;SDS011;36672;50.710;12.498;2022-12-01T01:54:24;22.25;;;14.00;;
49314;SDS011;36672;50.710;12.498;2022-12-01T01:56:55;19.70;;;13.15;;
49314;SDS011;36672;50.710;12.498;2022-12-01T01:59:25;23.13;;;14.23;;
49314;SDS011;36672;50.710;12.498;2022-12-01T02:02:05;23.40;;;15.05;;
49314;SDS011;36672;50.710;12.498;2022-12-01T02:04:36;21.05;;;13.25;;
49314;SDS011;36672;50.710;12.498;2022-12-01T02:07:05;21.20;;;13.45;;
49314;SDS011;36672;50.710;12.498;2022-12-01T02:09:32;23.35;;;14.95;;
49314;SDS011;36672;50.710;12.498;2022-12-01T02:12:02;22.70;;;14.48;;
49314;SDS011;36672;50.710;12.498;2022-12-01T02:20:21;23.05;;;14.98;;
49314;SDS011;36672;50.710;12.498;2022-12-01T02:34:43;30.08;;;15.68;;
49314;SDS011;36672;50.710;12.498;2022-12-01T02:37:34;27.88;;;16.08;;
49314;SDS011;36672;50.710;12.498;2022-12-01T02:40:17;31.70;;;18.77;;
49314;SDS011;36672;50.710;12.498;2022-12-01T02:42:50;31.77;;;19.13;;
49314;SDS011;36672;50.710;12.498;2022-12-01T02:45:39;31.92;;;18.67;;
49314;SDS011;36672;50.710;12.498;2022-12-01T02:48:08;33.13;;;19.33;;
49314;SDS011;36672;50.710;12.498;2022-12-01T02:50:38;35.35;;;18.52;;
49314;SDS011;36672;50.710;12.498;2022-12-01T02:53:05;34.00;;;19.98;;
49314;SDS011;36672;50.710;12.498;2022-12-01T02:55:32;28.30;;;17.88;;
49314;SDS011;36672;50.710;12.498;2022-12-01T02:57:58;33.72;;;19.20;;
49314;SDS011;36672;50.710;12.498;2022-12-01T03:00:23;31.42;;;19.00;;
49314;SDS011;36672;50.710;12.498;2022-12-01T03:03:14;35.92;;;20.17;;
49314;SDS011;36672;50.710;12.498;2022-12-01T03:05:44;38.10;;;19.63;;
49314;SDS011;36672;50.710;12.498;2022-12-01T03:08:23;34.05;;;19.10;;
49314;SDS011;36672;50.710;12.498;2022-12-01T03:10:58;72.93;;;21.80;;
49314;SDS011;36672;50.710;12.498;2022-12-01T03:13:41;58.05;;;21.58;;
49314;SDS011;36672;50.710;12.498;2022-12-01T03:16:21;54.15;;;21.95;;
49314;SDS011;36672;50.710;12.498;2022-12-01T03:18:57;34.60;;;20.65;;
49314;SDS011;36672;50.710;12.498;2022-12-01T03:24:01;52.75;;;19.65;;
49314;SDS011;36672;50.710;12.498;2022-12-01T03:26:30;56.80;;;22.88;;
49314;SDS011;36672;50.710;12.498;2022-12-01T03:29:03;68.43;;;22.48;;
49314;SDS011;36672;50.710;12.498;2022-12-01T03:31:34;62.75;;;23.35;;
49314;SDS011;36672;50.710;12.498;2022-12-01T03:36:49;37.13;;;21.88;;
49314;SDS011;36672;50.710;12.498;2022-12-01T03:39:20;52.38;;;24.60;;
49314;SDS011;36672;50.710;12.498;2022-12-01T03:41:52;47.08;;;22.33;;
49314;SDS011;36672;50.710;12.498;2022-12-01T03:44:24;63.38;;;24.50;;
49314;SDS011;36672;50.710;12.498;2022-12-01T03:46:56;40.53;;;22.67;;
49314;SDS011;36672;50.710;12.498;2022-12-01T03:49:34;42.85;;;23.55;;
49314;SDS011;36672;50.710;12.498;2022-12-01T03:52:05;44.40;;;23.55;;
49314;SDS011;36672;50.710;12.498;2022-12-01T03:57:19;40.75;;;23.25;;
49314;SDS011;36672;50.710;12.498;2022-12-01T03:59:50;40.97;;;23.25;;
49314;SDS011;36672;50.710;12.498;2022-12-01T04:02:16;43.00;;;23.38;;
49314;SDS011;36672;50.710;12.498;2022-12-01T04:04:42;43.72;;;24.23;;
49314;SDS011;36672;50.710;12.498;2022-12-01T04:07:07;41.25;;;23.13;;
49314;SDS011;36672;50.710;12.498;2022-12-01T04:09:37;42.70;;;23.77;;
49314;SDS011;36672;50.710;12.498;2022-12-01T04:12:04;41.65;;;23.88;;
49314;SDS011;36672;50.710;12.498;2022-12-01T04:14:48;42.72;;;21.75;;
49314;SDS011;36672;50.710;12.498;2022-12-01T04:17:13;41.15;;;23.80;;
49314;SDS011;36672;50.710;12.498;2022-12-01T04:19:38;40.70;;;23.75;;
49314;SDS011;36672;50.710;12.498;2022-12-01T04:22:07;40.80;;;22.30;;
49314;SDS011;36672;50.710;12.498;2022-12-01T04:24:32;48.28;;;23.75;;
49314;SDS011;36672;50.710;12.498;2022-12-01T04:26:57;48.42;;;25.17;;
49314;SDS011;36672;50.710;12.498;2022-12-01T04:29:23;42.30;;;23.67;;
49314;SDS011;36672;50.710;12.498;2022-12-01T04:31:48;42.35;;;24.17;;
49314;SDS011;36672;50.710;12.498;2022-12-01T04:34:14;41.70;;;23.10;;
49314;SDS011;36672;50.710;12.498;2022-12-01T04:36:39;43.65;;;24.05;;
49314;SDS011;36672;50.710;12.498;2022-12-01T04:39:04;44.65;;;24.55;;
49314;SDS011;36672;50.710;12.498;2022-12-01T04:41:30;40.10;;;23.40;;
49314;SDS011;36672;50.710;12.498;2022-12-01T04:43:55;40.03;;;21.63;;
49314;SDS011;36672;50.710;12.498;2022-12-01T04:46:21;44.33;;;24.10;;
49314;SDS011;36672;50.710;12.498;2022-12-01T04:48:47;41.15;;;22.75;;
49314;SDS011;36672;50.710;12.498;2022-12-01T04:51:13;40.17;;;22.70;;
49314;SDS011;36672;50.710;12.498;2022-12-01T04:53:38;38.78;;;22.27;;
49314;SDS011;36672;50.710;12.498;2022-12-01T04:56:04;40.75;;;22.98;;
49314;SDS011;36672;50.710;12.498;2022-12-01T04:58:30;41.22;;;22.00;;
49314;SDS011;36672;50.710;12.498;2022-12-01T05:01:00;37.80;;;22.17;;
49314;SDS011;36672;50.710;12.498;2022-12-01T05:03:27;36.00;;;20.10;;
49314;SDS011;36672;50.710;12.498;2022-12-01T05:05:59;38.55;;;22.05;;
49314;SDS011;36672;50.710;12.498;2022-12-01T05:08:32;38.25;;;22.63;;
49314;SDS011;36672;50.710;12.498;2022-12-01T05:10:58;41.05;;;23.30;;
49314;SDS011;36672;50.710;12.498;2022-12-01T05:13:24;41.05;;;22.98;;
49314;SDS011;36672;50.710;12.498;2022-12-01T05:15:49;40.83;;;22.77;;
49314;SDS011;36672;50.710;12.498;2022-12-01T05:18:15;40.25;;;22.33;;
49314;SDS011;36672;50.710;12.498;2022-12-01T05:20:40;39.47;;;21.95;;
49314;SDS011;36672;50.710;12.498;2022-12-01T05:23:21;41.10;;;21.25;;
49314;SDS011;36672;50.710;12.498;2022-12-01T05:25:48;36.30;;;20.63;;
49314;SDS011;36672;50.710;12.498;2022-12-01T05:28:13;39.63;;;21.95;;
49314;SDS011;36672;50.710;12.498;2022-12-01T05:30:39;41.25;;;23.10;;
49314;SDS011;36672;50.710;12.498;2022-12-01T05:33:05;38.13;;;21.50;;
49314;SDS011;36672;50.710;12.498;2022-12-01T05:35:34;40.33;;;21.48;;
49314;SDS011;36672;50.710;12.498;2022-12-01T05:37:59;40.20;;;22.30;;
49314;SDS011;36672;50.710;12.498;2022-12-01T05:40:25;45.00;;;22.92;;
49314;SDS011;36672;50.710;12.498;2022-12-01T05:42:50;41.03;;;21.98;;
49314;SDS011;36672;50.710;12.498;2022-12-01T05:45:16;41.40;;;22.33;;
49314;SDS011;36672;50.710;12.498;2022-12-01T05:47:41;39.92;;;22.00;;
49314;SDS011;36672;50.710;12.498;2022-12-01T05:50:07;40.03;;;22.13;;
49314;SDS011;36672;50.710;12.498;2022-12-01T05:52:33;42.15;;;23.02;;
49314;SDS011;36672;50.710;12.498;2022-12-01T05:55:02;41.15;;;23.00;;
49314;SDS011;36672;50.710;12.498;2022-12-01T05:57:29;39.78;;;21.88;;
49314;SDS011;36672;50.710;12.498;2022-12-01T05:59:55;38.67;;;22.02;;
49314;SDS011;36672;50.710;12.498;2022-12-01T06:02:20;41.05;;;22.02;;
49314;SDS011;36672;50.710;12.498;2022-12-01T06:04:46;38.75;;;22.17;;
49314;SDS011;36672;50.710;12.498;2022-12-01T06:07:11;35.22;;;21.40;;
49314;SDS011;36672;50.710;12.498;2022-12-01T06:09:37;39.78;;;21.90;;
49314;SDS011;36672;50.710;12.498;2022-12-01T06:12:02;33.75;;;20.15;;
49314;SDS011;36672;50.710;12.498;2022-12-01T06:14:27;31.88;;;19.60;;
49314;SDS011;36672;50.710;12.498;2022-12-01T06:16:53;34.90;;;20.38;;
49314;SDS011;36672;50.710;12.498;2022-12-01T06:19:18;35.13;;;20.15;;
49314;SDS011;36672;50.710;12.498;2022-12-01T06:21:44;36.08;;;19.85;;
49314;SDS011;36672;50.710;12.498;2022-12-01T06:24:09;40.05;;;21.67;;
49314;SDS011;36672;50.710;12.498;2022-12-01T06:26:34;38.60;;;22.23;;
49314;SDS011;36672;50.710;12.498;2022-12-01T06:29:00;42.15;;;22.33;;
49314;SDS011;36672;50.710;12.498;2022-12-01T06:31:25;40.38;;;21.83;;
49314;SDS011;36672;50.710;12.498;2022-12-01T06:33:51;41.67;;;21.60;;
49314;SDS011;36672;50.710;12.498;2022-12-01T06:36:16;41.40;;;23.45;;
49314;SDS011;36672;50.710;12.498;2022-12-01T06:38:41;39.55;;;21.98;;
49314;SDS011;36672;50.710;12.498;2022-12-01T06:41:07;42.03;;;22.42;;
49314;SDS011;36672;50.710;12.498;2022-12-01T06:43:34;36.63;;;21.13;;
49314;SDS011;36672;50.710;12.498;2022-12-01T06:46:04;36.75;;;20.42;;
49314;SDS011;36672;50.710;12.498;2022-12-01T06:48:30;36.05;;;20.25;;
49314;SDS011;36672;50.710;12.498;2022-12-01T06:50:56;37.17;;;20.80;;
49314;SDS011;36672;50.710;12.498;2022-12-01T06:53:22;38.90;;;21.58;;
49314;SDS011;36672;50.710;12.498;2022-12-01T06:55:48;38.42;;;21.45;;
49314;SDS011;36672;50.710;12.498;2022-12-01T06:58:14;35.60;;;20.35;;
49314;SDS011;36672;50.710;12.498;2022-12-01T07:00:40;35.38;;;20.83;;
49314;SDS011;36672;50.710;12.498;2022-12-01T07:03:06;33.53;;;19.95;;
49314;SDS011;36672;50.710;12.498;2022-12-01T07:05:32;37.72;;;20.80;;
49314;SDS011;36672;50.710;12.498;2022-12-01T07:07:57;41.60;;;21.60;;
49314;SDS011;36672;50.710;12.498;2022-12-01T07:10:24;50.00;;;22.10;;
49314;SDS011;36672;50.710;12.498;2022-12-01T07:12:49;40.80;;;21.63;;
49314;SDS011;36672;50.710;12.498;2022-12-01T07:15:14;40.28;;;20.92;;
49314;SDS011;36672;50.710;12.498;2022-12-01T07:17:40;38.95;;;21.30;;
49314;SDS011;36672;50.710;12.498;2022-12-01T07:20:05;39.13;;;21.48;;
49314;SDS011;36672;50.710;12.498;2022-12-01T07:22:31;39.40;;;21.05;;
49314;SDS011;36672;50.710;12.498;2022-12-01T07:24:57;41.58;;;22.02;;
49314;SDS011;36672;50.710;12.498;2022-12-01T07:27:22;40.65;;;21.73;;
49314;SDS011;36672;50.710;12.498;2022-12-01T07:29:47;41.33;;;21.05;;
49314;SDS011;36672;50.710;12.498;2022-12-01T07:32:14;36.33;;;20.00;;
49314;SDS011;36672;50.710;12.498;2022-12-01T07:34:39;39.92;;;20.00;;
49314;SDS011;36672;50.710;12.498;2022-12-01T07:37:04;34.67;;;20.15;;
49314;SDS011;36672;50.710;12.498;2022-12-01T07:39:30;46.78;;;21.08;;
49314;SDS011;36672;50.710;12.498;2022-12-01T07:41:55;36.08;;;19.70;;
49314;SDS011;36672;50.710;12.498;2022-12-01T07:44:21;34.95;;;19.40;;
49314;SDS011;36672;50.710;12.498;2022-12-01T07:46:46;33.90;;;19.10;;
49314;SDS011;36672;50.710;12.498;2022-12-01T07:49:11;35.72;;;19.20;;
49314;SDS011;36672;50.710;12.498;2022-12-01T07:51:39;36.38;;;19.80;;
49314;SDS011;36672;50.710;12.498;2022-12-01T07:54:05;38.83;;;19.55;;
49314;SDS011;36672;50.710;12.498;2022-12-01T07:56:31;35.53;;;18.80;;
49314;SDS011;36672;50.710;12.498;2022-12-01T07:58:56;36.35;;;19.23;;
49314;SDS011;36672;50.710;12.498;2022-12-01T08:01:23;33.13;;;19.13;;
49314;SDS011;36672;50.710;12.498;2022-12-01T08:03:49;33.20;;;18.40;;
49314;SDS011;36672;50.710;12.498;2022-12-01T08:06:16;37.72;;;20.35;;
49314;SDS011;36672;50.710;12.498;2022-12-01T08:08:42;34.17;;;18.98;;
49314;SDS011;36672;50.710;12.498;2022-12-01T08:11:12;31.50;;;18.50;;
49314;SDS011;36672;50.710;12.498;2022-12-01T08:13:39;36.45;;;19.95;;
49314;SDS011;36672;50.710;12.498;2022-12-01T08:16:06;39.15;;;19.92;;
49314;SDS011;36672;50.710;12.498;2022-12-01T08:18:33;36.97;;;19.80;;
49314;SDS011;36672;50.710;12.498;2022-12-01T08:21:00;35.45;;;19.13;;
49314;SDS011;36672;50.710;12.498;2022-12-01T08:23:25;41.08;;;20.55;;
49314;SDS011;36672;50.710;12.498;2022-12-01T08:25:51;40.72;;;21.48;;
49314;SDS011;36672;50.710;12.498;2022-12-01T08:28:17;36.20;;;19.48;;
49314;SDS011;36672;50.710;12.498;2022-12-01T08:30:43;39.63;;;20.52;;
49314;SDS011;36672;50.710;12.498;2022-12-01T08:33:09;40.03;;;20.95;;
49314;SDS011;36672;50.710;12.498;2022-12-01T08:35:35;38.83;;;20.00;;
49314;SDS011;36672;50.710;12.498;2022-12-01T08:38:01;40.65;;;21.25;;
49314;SDS011;36672;50.710;12.498;2022-12-01T08:40:27;42.97;;;21.42;;
49314;SDS011;36672;50.710;12.498;2022-12-01T08:42:52;39.15;;;20.42;;
49314;SDS011;36672;50.710;12.498;2022-12-01T08:45:18;36.40;;;19.77;;
49314;SDS011;36672;50.710;12.498;2022-12-01T08:47:44;40.97;;;20.67;;
49314;SDS011;36672;50.710;12.498;2022-12-01T08:50:10;37.17;;;20.50;;
49314;SDS011;36672;50.710;12.498;2022-12-01T08:52:35;38.88;;;20.90;;
49314;SDS011;36672;50.710;12.498;2022-12-01T08:55:00;42.63;;;21.75;;
49314;SDS011;36672;50.710;12.498;2022-12-01T08:57:30;37.55;;;20.05;;
49314;SDS011;36672;50.710;12.498;2022-12-01T08:59:56;36.55;;;20.75;;
49314;SDS011;36672;50.710;12.498;2022-12-01T09:02:21;39.58;;;20.08;;
49314;SDS011;36672;50.710;12.498;2022-12-01T09:04:47;41.72;;;21.40;;
49314;SDS011;36672;50.710;12.498;2022-12-01T09:07:16;36.80;;;19.92;;
49314;SDS011;36672;50.710;12.498;2022-12-01T09:09:43;40.90;;;21.60;;
49314;SDS011;36672;50.710;12.498;2022-12-01T09:12:09;42.72;;;20.52;;
49314;SDS011;36672;50.710;12.498;2022-12-01T09:14:36;36.75;;;21.13;;
49314;SDS011;36672;50.710;12.498;2022-12-01T09:17:06;37.85;;;20.20;;
49314;SDS011;36672;50.710;12.498;2022-12-01T09:19:33;42.97;;;21.00;;
49314;SDS011;36672;50.710;12.498;2022-12-01T09:21:59;40.10;;;21.95;;
49314;SDS011;36672;50.710;12.498;2022-12-01T09:24:24;41.33;;;21.40;;
49314;SDS011;36672;50.710;12.498;2022-12-01T09:26:53;40.03;;;21.17;;
49314;SDS011;36672;50.710;12.498;2022-12-01T09:29:20;35.30;;;19.73;;
49314;SDS011;36672;50.710;12.498;2022-12-01T09:31:45;42.50;;;21.77;;
49314;SDS011;36672;50.710;12.498;2022-12-01T09:34:12;38.40;;;20.63;;
49314;SDS011;36672;50.710;12.498;2022-12-01T09:36:39;37.92;;;19.95;;
49314;SDS011;36672;50.710;12.498;2022-12-01T09:39:05;39.42;;;20.70;;
49314;SDS011;36672;50.710;12.498;2022-12-01T09:41:35;40.50;;;20.70;;
49314;SDS011;36672;50.710;12.498;2022-12-01T09:47:02;40.80;;;20.63;;
49314;SDS011;36672;50.710;12.498;2022-12-01T09:49:38;44.72;;;20.95;;
49314;SDS011;36672;50.710;12.498;2022-12-01T09:52:23;37.85;;;20.70;;
49314;SDS011;36672;50.710;12.498;2022-12-01T09:54:51;43.13;;;21.48;;
49314;SDS011;36672;50.710;12.498;2022-12-01T09:57:35;41.35;;;21.15;;
49314;SDS011;36672;50.710;12.498;2022-12-01T10:00:09;44.03;;;21.52;;
49314;SDS011;36672;50.710;12.498;2022-12-01T10:02:39;38.60;;;20.50;;
49314;SDS011;36672;50.710;12.498;2022-12-01T10:05:09;39.55;;;19.60;;
49314;SDS011;36672;50.710;12.498;2022-12-01T10:07:41;38.10;;;19.75;;
49314;SDS011;36672;50.710;12.498;2022-12-01T10:12:43;32.45;;;19.60;;
49314;SDS011;36672;50.710;12.498;2022-12-01T10:15:22;35.38;;;19.27;;
49314;SDS011;36672;50.710;12.498;2022-12-01T10:18:21;36.25;;;18.88;;
49314;SDS011;36672;50.710;12.498;2022-12-01T10:20:55;37.53;;;19.63;;
49314;SDS011;36672;50.710;12.498;2022-12-01T10:26:10;38.58;;;20.23;;
49314;SDS011;36672;50.710;12.498;2022-12-01T10:36:45;36.85;;;19.17;;
49314;SDS011;36672;50.710;12.498;2022-12-01T10:39:30;31.33;;;18.38;;
49314;SDS011;36672;50.710;12.498;2022-12-01T10:42:45;32.83;;;18.10;;
49314;SDS011;36672;50.710;12.498;2022-12-01T10:45:01;31.10;;;16.73;;
49314;SDS011;36672;50.710;12.498;2022-12-01T10:47:30;33.00;;;18.40;;
49314;SDS011;36672;50.710;12.498;2022-12-01T10:49:56;29.85;;;16.70;;
49314;SDS011;36672;50.710;12.498;2022-12-01T10:52:32;36.53;;;18.25;;
49314;SDS011;36672;50.710;12.498;2022-12-01T10:54:58;33.78;;;17.88;;
49314;SDS011;36672;50.710;12.498;2022-12-01T10:57:25;28.67;;;16.40;;
49314;SDS011;36672;50.710;12.498;2022-12-01T11:00:00;33.85;;;17.70;;
49314;SDS011;36672;50.710;12.498;2022-12-01T11:02:29;35.22;;;18.13;;
49314;SDS011;36672;50.710;12.498;2022-12-01T11:05:06;32.65;;;17.60;;
49314;SDS011;36672;50.710;12.498;2022-12-01T11:07:45;33.22;;;17.80;;
49314;SDS011;36672;50.710;12.498;2022-12-01T11:18:35;30.90;;;16.83;;
49314;SDS011;36672;50.710;12.498;2022-12-01T11:21:06;34.88;;;17.20;;
49314;SDS011;36672;50.710;12.498;2022-12-01T11:23:48;34.13;;;17.92;;
49314;SDS011;36672;50.710;12.498;2022-12-01T11:31:44;33.10;;;17.02;;
49314;SDS011;36672;50.710;12.498;2022-12-01T11:34:28;32.28;;;17.13;;
49314;SDS011;36672;50.710;12.498;2022-12-01T11:36:59;37.05;;;18.00;;
49314;SDS011;36672;50.710;12.498;2022-12-01T11:39:39;36.10;;;18.17;;
49314;SDS011;36672;50.710;12.498;2022-12-01T11:44:38;34.80;;;19.63;;
49314;SDS011;36672;50.710;12.498;2022-12-01T11:47:14;33.40;;;17.23;;
49314;SDS011;36672;50.710;12.498;2022-12-01T11:49:42;38.00;;;19.77;;
49314;SDS011;36672;50.710;12.498;2022-12-01T11:52:20;32.50;;;17.95;;
49314;SDS011;36672;50.710;12.498;2022-12-01T11:55:22;31.98;;;17.15;;
49314;SDS011;36672;50.710;12.498;2022-12-01T11:57:44;36.50;;;17.70;;
49314;SDS011;36672;50.710;12.498;2022-12-01T12:00:55;33.47;;;17.05;;
49314;SDS011;36672;50.710;12.498;2022-12-01T12:03:20;32.88;;;16.73;;
49314;SDS011;36672;50.710;12.498;2022-12-01T12:31:10;33.88;;;16.92;;
49314;SDS011;36672;50.710;12.498;2022-12-01T12:51:24;40.80;;;19.23;;
49314;SDS011;36672;50.710;12.498;2022-12-01T12:56:39;54.70;;;22.27;;
49314;SDS011;36672;50.710;12.498;2022-12-01T12:59:22;54.40;;;21.05;;
49314;SDS011;36672;50.710;12.498;2022-12-01T13:02:11;50.38;;;21.42;;
49314;SDS011;36672;50.710;12.498;2022-12-01T13:04:52;50.65;;;24.88;;
49314;SDS011;36672;50.710;12.498;2022-12-01T13:10:08;51.55;;;21.83;;
49314;SDS011;36672;50.710;12.498;2022-12-01T13:12:42;47.30;;;20.45;;
49314;SDS011;36672;50.710;12.498;2022-12-01T13:15:15;47.15;;;21.33;;
49314;SDS011;36672;50.710;12.498;2022-12-01T13:17:52;61.03;;;23.05;;
49314;SDS011;36672;50.710;12.498;2022-12-01T13:20:24;56.70;;;22.92;;
49314;SDS011;36672;50.710;12.498;2022-12-01T13:22:51;52.20;;;22.73;;
49314;SDS011;36672;50.710;12.498;2022-12-01T13:25:23;55.55;;;23.17;;
49314;SDS011;36672;50.710;12.498;2022-12-01T13:30:19;52.65;;;22.23;;
49314;SDS011;36672;50.710;12.498;2022-12-01T13:32:46;56.17;;;23.00;;
49314;SDS011;36672;50.710;12.498;2022-12-01T13:37:47;53.63;;;21.40;;
49314;SDS011;36672;50.710;12.498;2022-12-01T13:42:51;58.38;;;22.38;;
49314;SDS011;36672;50.710;12.498;2022-12-01T13:45:25;52.13;;;22.60;;
49314;SDS011;36672;50.710;12.498;2022-12-01T13:47:59;59.17;;;24.27;;
49314;SDS011;36672;50.710;12.498;2022-12-01T13:53:11;55.72;;;23.70;;
49314;SDS011;36672;50.710;12.498;2022-12-01T13:58:25;52.53;;;22.70;;
49314;SDS011;36672;50.710;12.498;2022-12-01T14:06:36;61.33;;;24.98;;
49314;SDS011;36672;50.710;12.498;2022-12-01T14:09:26;56.22;;;22.20;;
49314;SDS011;36672;50.710;12.498;2022-12-01T14:12:19;59.47;;;24.27;;
49314;SDS011;36672;50.710;12.498;2022-12-01T14:14:53;58.60;;;23.90;;
49314;SDS011;36672;50.710;12.498;2022-12-01T14:17:24;64.03;;;25.52;;
49314;SDS011;36672;50.710;12.498;2022-12-01T14:19:50;60.97;;;23.70;;
49314;SDS011;36672;50.710;12.498;2022-12-01T14:24:59;63.72;;;23.48;;
49314;SDS011;36672;50.710;12.498;2022-12-01T14:27:35;57.55;;;24.17;;
49314;SDS011;36672;50.710;12.498;2022-12-01T14:36:28;57.58;;;24.83;;
49314;SDS011;36672;50.710;12.498;2022-12-01T14:44:23;56.92;;;24.15;;
49314;SDS011;36672;50.710;12.498;2022-12-01T14:47:00;56.78;;;22.48;;
49314;SDS011;36672;50.710;12.498;2022-12-01T14:54:57;61.08;;;24.50;;
49314;SDS011;36672;50.710;12.498;2022-12-01T14:57:27;60.30;;;24.40;;
49314;SDS011;36672;50.710;12.498;2022-12-01T15:02:31;65.93;;;24.55;;
49314;SDS011;36672;50.710;12.498;2022-12-01T15:05:13;61.85;;;25.77;;
49314;SDS011;36672;50.710;12.498;2022-12-01T15:07:42;58.45;;;24.13;;
49314;SDS011;36672;50.710;12.498;2022-12-01T15:10:17;63.15;;;23.95;;
49314;SDS011;36672;50.710;12.498;2022-12-01T15:12:45;66.85;;;25.73;;
49314;SDS011;36672;50.710;12.498;2022-12-01T15:17:42;61.38;;;24.77;;
49314;SDS011;36672;50.710;12.498;2022-12-01T15:22:54;66.35;;;25.10;;
49314;SDS011;36672;50.710;12.498;2022-12-01T15:25:28;61.63;;;26.85;;
49314;SDS011;36672;50.710;12.498;2022-12-01T15:30:47;68.95;;;28.58;;
49314;SDS011;36672;50.710;12.498;2022-12-01T15:33:32;68.07;;;26.25;;
49314;SDS011;36672;50.710;12.498;2022-12-01T15:36:01;62.63;;;26.13;;
49314;SDS011;36672;50.710;12.498;2022-12-01T15:38:28;74.95;;;27.35;;
49314;SDS011;36672;50.710;12.498;2022-12-01T15:40:57;77.47;;;27.83;;
49314;SDS011;36672;50.710;12.498;2022-12-01T15:43:31;73.30;;;27.88;;
49314;SDS011;36672;50.710;12.498;2022-12-01T15:46:00;69.38;;;27.98;;
49314;SDS011;36672;50.710;12.498;2022-12-01T15:48:34;59.95;;;25.98;;
49314;SDS011;36672;50.710;12.498;2022-12-01T15:51:05;70.65;;;28.38;;
49314;SDS011;36672;50.710;12.498;2022-12-01T15:53:37;74.18;;;29.05;;
49314;SDS011;36672;50.710;12.498;2022-12-01T15:56:09;67.07;;;26.48;;
49314;SDS011;36672;50.710;12.498;2022-12-01T15:58:39;66.70;;;25.55;;
49314;SDS011;36672;50.710;12.498;2022-12-01T16:01:14;62.97;;;24.98;;
49314;SDS011;36672;50.710;12.498;2022-12-01T16:06:16;67.55;;;28.02;;
49314;SDS011;36672;50.710;12.498;2022-12-01T16:08:51;77.45;;;29.67;;
49314;SDS011;36672;50.710;12.498;2022-12-01T16:11:24;67.55;;;26.70;;
49314;SDS011;36672;50.710;12.498;2022-12-01T16:13:57;78.20;;;30.20;;
49314;SDS011;36672;50.710;12.498;2022-12-01T16:16:41;73.90;;;29.40;;
49314;SDS011;36672;50.710;12.498;2022-12-01T16:21:41;67.68;;;28.17;;
49314;SDS011;36672;50.710;12.498;2022-12-01T16:27:32;70.80;;;29.10;;
49314;SDS011;36672;50.710;12.498;2022-12-01T16:32:30;66.25;;;28.65;;
49314;SDS011;36672;50.710;12.498;2022-12-01T16:34:58;63.08;;;26.77;;
49314;SDS011;36672;50.710;12.498;2022-12-01T16:37:23;77.38;;;30.55;;
49314;SDS011;36672;50.710;12.498;2022-12-01T16:39:50;66.38;;;30.02;;
49314;SDS011;36672;50.710;12.498;2022-12-01T16:42:17;70.35;;;29.20;;
49314;SDS011;36672;50.710;12.498;2022-12-01T16:44:45;76.05;;;31.70;;
49314;SDS011;36672;50.710;12.498;2022-12-01T16:47:11;79.40;;;31.25;;
49314;SDS011;36672;50.710;12.498;2022-12-01T16:49:37;68.07;;;29.35;;
49314;SDS011;36672;50.710;12.498;2022-12-01T16:52:02;68.72;;;27.90;;
49314;SDS011;36672;50.710;12.498;2022-12-01T16:54:28;71.88;;;29.52;;
49314;SDS011;36672;50.710;12.498;2022-12-01T16:56:53;72.88;;;31.05;;
49314;SDS011;36672;50.710;12.498;2022-12-01T16:59:18;68.28;;;29.10;;
49314;SDS011;36672;50.710;12.498;2022-12-01T17:01:44;71.88;;;30.85;;
49314;SDS011;36672;50.710;12.498;2022-12-01T17:04:09;79.05;;;30.92;;
49314;SDS011;36672;50.710;12.498;2022-12-01T17:06:34;82.22;;;31.75;;
49314;SDS011;36672;50.710;12.498;2022-12-01T17:09:02;79.15;;;31.38;;
49314;SDS011;36672;50.710;12.498;2022-12-01T17:11:27;72.40;;;29.77;;